sensor_id;sensor_type;location;lat;lon;timestamp;pressure;altitude;pressure_sealevel;temperature;humidity
31331;BME280;34067;39.548;-76.088;2022-09-13T00:01:13;100675.07;;;26.54;94.23
31331;BME280;34067;39.548;-76.088;2022-09-13T00:03:43;100674.17;;;27.10;92.16
31331;BME280;34067;39.548;-76.088;2022-09-13T00:06:14;100674.75;;;26.33;90.33
31331;BME280;34067;39.548;-76.088;2022-09-13T00:08:43;100676.17;;;27.38;87.86
31331;BME280;34067;39.548;-76.088;2022-09-13T00:11:16;100689.34;;;27.03;88.21
31331;BME280;34067;39.548;-76.088;2022-09-13T00:13:44;100699.57;;;27.42;87.67
31331;BME280;34067;39.548;-76.088;2022-09-13T00:16:13;100690.99;;;27.61;87.25
31331;BME280;34067;39.548;-76.088;2022-09-13T00:18:42;100696.12;;;27.92;85.63
31331;BME280;34067;39.548;-76.088;2022-09-13T00:21:13;100706.99;;;27.47;86.92
31331;BME280;34067;39.548;-76.088;2022-09-13T00:23:44;100711.70;;;27.62;87.47
31331;BME280;34067;39.548;-76.088;2022-09-13T00:26:14;100710.41;;;28.08;86.53
31331;BME280;34067;39.548;-76.088;2022-09-13T00:28:43;100713.69;;;27.82;85.46
31331;BME280;34067;39.548;-76.088;2022-09-13T00:31:11;100723.75;;;28.36;83.50
31331;BME280;34067;39.548;-76.088;2022-09-13T00:33:39;100731.77;;;27.88;82.29
31331;BME280;34067;39.548;-76.088;2022-09-13T00:36:08;100743.62;;;27.80;83.83
31331;BME280;34067;39.548;-76.088;2022-09-13T00:38:38;100756.94;;;27.88;84.27
31331;BME280;34067;39.548;-76.088;2022-09-13T00:41:09;100766.12;;;27.67;85.88
31331;BME280;34067;39.548;-76.088;2022-09-13T00:43:42;100767.76;;;27.70;86.42
31331;BME280;34067;39.548;-76.088;2022-09-13T00:46:14;100761.48;;;26.73;93.47
31331;BME280;34067;39.548;-76.088;2022-09-13T00:48:45;100758.61;;;26.76;96.70
31331;BME280;34067;39.548;-76.088;2022-09-13T00:51:14;100760.13;;;26.91;95.21
31331;BME280;34067;39.548;-76.088;2022-09-13T00:53:44;100755.11;;;26.07;100.00
31331;BME280;34067;39.548;-76.088;2022-09-13T00:56:17;100757.83;;;25.38;100.00
31331;BME280;34067;39.548;-76.088;2022-09-13T00:58:50;100766.31;;;25.13;100.00
31331;BME280;34067;39.548;-76.088;2022-09-13T01:01:25;100774.40;;;25.12;100.00
31331;BME280;34067;39.548;-76.088;2022-09-13T01:03:56;100774.96;;;25.13;100.00
31331;BME280;34067;39.548;-76.088;2022-09-13T01:06:27;100772.88;;;25.34;100.00
31331;BME280;34067;39.548;-76.088;2022-09-13T01:08:57;100768.89;;;25.93;100.00
31331;BME280;34067;39.548;-76.088;2022-09-13T01:11:30;100765.03;;;26.13;100.00
31331;BME280;34067;39.548;-76.088;2022-09-13T01:14:03;100761.19;;;26.76;100.00
31331;BME280;34067;39.548;-76.088;2022-09-13T01:16:33;100757.15;;;26.02;100.00
31331;BME280;34067;39.548;-76.088;2022-09-13T01:19:01;100747.20;;;26.22;100.00
31331;BME280;34067;39.548;-76.088;2022-09-13T01:22:01;100737.59;;;25.77;100.00
31331;BME280;34067;39.548;-76.088;2022-09-13T01:25:27;100730.59;;;25.93;100.00
31331;BME280;34067;39.548;-76.088;2022-09-13T01:28:17;100718.73;;;26.35;100.00
31331;BME280;34067;39.548;-76.088;2022-09-13T01:30:58;100715.54;;;26.10;100.00
31331;BME280;34067;39.548;-76.088;2022-09-13T01:33:41;100712.47;;;26.87;100.00
31331;BME280;34067;39.548;-76.088;2022-09-13T01:36:31;100714.00;;;26.88;99.62
31331;BME280;34067;39.548;-76.088;2022-09-13T01:39:05;100711.01;;;26.96;97.33
31331;BME280;34067;39.548;-76.088;2022-09-13T01:41:48;100706.79;;;26.05;100.00
31331;BME280;34067;39.548;-76.088;2022-09-13T01:44:30;100709.63;;;26.51;96.68
31331;BME280;34067;39.548;-76.088;2022-09-13T01:47:10;100712.49;;;26.27;88.20
31331;BME280;34067;39.548;-76.088;2022-09-13T01:49:45;100710.04;;;26.21;85.87
31331;BME280;34067;39.548;-76.088;2022-09-13T01:52:22;100713.81;;;26.18;85.91
31331;BME280;34067;39.548;-76.088;2022-09-13T01:54:55;100708.59;;;26.12;86.67
31331;BME280;34067;39.548;-76.088;2022-09-13T01:57:31;100706.57;;;25.94;86.33
31331;BME280;34067;39.548;-76.088;2022-09-13T02:00:07;100707.57;;;25.47;88.45
31331;BME280;34067;39.548;-76.088;2022-09-13T02:02:38;100713.14;;;24.97;90.13
31331;BME280;34067;39.548;-76.088;2022-09-13T02:05:21;100717.46;;;25.30;89.21
31331;BME280;34067;39.548;-76.088;2022-09-13T02:07:57;100719.99;;;25.58;87.94
31331;BME280;34067;39.548;-76.088;2022-09-13T02:10:30;100730.71;;;25.39;87.34
31331;BME280;34067;39.548;-76.088;2022-09-13T02:13:01;100735.83;;;25.26;89.39
31331;BME280;34067;39.548;-76.088;2022-09-13T02:15:35;100738.52;;;25.67;89.03
31331;BME280;34067;39.548;-76.088;2022-09-13T02:18:09;100740.71;;;26.20;87.27
31331;BME280;34067;39.548;-76.088;2022-09-13T02:20:44;100743.38;;;25.41;85.49
31331;BME280;34067;39.548;-76.088;2022-09-13T02:23:19;100745.43;;;25.39;85.48
31331;BME280;34067;39.548;-76.088;2022-09-13T02:25:50;100743.63;;;25.79;83.42
31331;BME280;34067;39.548;-76.088;2022-09-13T02:28:25;100743.33;;;25.93;82.18
31331;BME280;34067;39.548;-76.088;2022-09-13T02:30:58;100739.22;;;25.37;84.02
31331;BME280;34067;39.548;-76.088;2022-09-13T02:33:31;100732.93;;;25.70;83.33
31331;BME280;34067;39.548;-76.088;2022-09-13T02:36:03;100730.43;;;25.71;83.72
31331;BME280;34067;39.548;-76.088;2022-09-13T02:38:37;100730.55;;;25.62;82.04
31331;BME280;34067;39.548;-76.088;2022-09-13T02:41:14;100736.44;;;25.60;82.67
31331;BME280;34067;39.548;-76.088;2022-09-13T02:43:45;100737.70;;;25.59;84.16
31331;BME280;34067;39.548;-76.088;2022-09-13T02:46:23;100739.87;;;25.61;84.39
31331;BME280;34067;39.548;-76.088;2022-09-13T02:49:01;100743.43;;;25.50;84.72
31331;BME280;34067;39.548;-76.088;2022-09-13T02:51:40;100741.94;;;25.32;85.51
31331;BME280;34067;39.548;-76.088;2022-09-13T02:54:22;100740.34;;;24.86;86.59
31331;BME280;34067;39.548;-76.088;2022-09-13T02:57:00;100740.35;;;25.47;87.01
31331;BME280;34067;39.548;-76.088;2022-09-13T02:59:30;100747.08;;;25.25;88.44
31331;BME280;34067;39.548;-76.088;2022-09-13T03:02:02;100757.37;;;24.54;92.48
31331;BME280;34067;39.548;-76.088;2022-09-13T03:04:32;100757.14;;;24.48;94.17
31331;BME280;34067;39.548;-76.088;2022-09-13T03:07:01;100750.17;;;24.12;95.23
31331;BME280;34067;39.548;-76.088;2022-09-13T03:09:28;100742.07;;;24.37;95.18
31331;BME280;34067;39.548;-76.088;2022-09-13T03:12:09;100742.46;;;24.27;95.37
31331;BME280;34067;39.548;-76.088;2022-09-13T03:14:48;100746.02;;;24.25;95.56
31331;BME280;34067;39.548;-76.088;2022-09-13T03:17:34;100754.42;;;24.40;94.19
31331;BME280;34067;39.548;-76.088;2022-09-13T03:20:12;100750.38;;;24.14;95.17
31331;BME280;34067;39.548;-76.088;2022-09-13T03:22:57;100755.23;;;24.21;94.89
31331;BME280;34067;39.548;-76.088;2022-09-13T03:25:44;100762.81;;;24.52;94.15
31331;BME280;34067;39.548;-76.088;2022-09-13T03:28:26;100766.96;;;23.90;93.10
31331;BME280;34067;39.548;-76.088;2022-09-13T03:31:05;100772.34;;;24.54;92.82
31331;BME280;34067;39.548;-76.088;2022-09-13T03:33:41;100773.07;;;24.06;92.00
31331;BME280;34067;39.548;-76.088;2022-09-13T03:36:15;100775.38;;;24.25;92.81
31331;BME280;34067;39.548;-76.088;2022-09-13T03:38:54;100770.73;;;25.15;91.79
31331;BME280;34067;39.548;-76.088;2022-09-13T03:41:28;100768.09;;;24.82;90.93
31331;BME280;34067;39.548;-76.088;2022-09-13T03:44:00;100769.95;;;24.68;89.92
31331;BME280;34067;39.548;-76.088;2022-09-13T03:46:32;100767.95;;;24.91;89.14
31331;BME280;34067;39.548;-76.088;2022-09-13T03:49:03;100765.71;;;24.32;89.74
31331;BME280;34067;39.548;-76.088;2022-09-13T03:51:32;100765.00;;;23.72;93.77
31331;BME280;34067;39.548;-76.088;2022-09-13T03:54:03;100764.69;;;23.12;96.43
31331;BME280;34067;39.548;-76.088;2022-09-13T03:56:32;100764.90;;;24.24;94.81
31331;BME280;34067;39.548;-76.088;2022-09-13T03:59:00;100765.25;;;24.59;95.68
31331;BME280;34067;39.548;-76.088;2022-09-13T04:01:28;100761.13;;;24.01;96.56
31331;BME280;34067;39.548;-76.088;2022-09-13T04:03:55;100750.28;;;25.10;94.01
31331;BME280;34067;39.548;-76.088;2022-09-13T04:06:23;100744.90;;;23.06;98.60
31331;BME280;34067;39.548;-76.088;2022-09-13T04:08:51;100742.94;;;23.74;96.32
31331;BME280;34067;39.548;-76.088;2022-09-13T04:11:19;100746.95;;;23.86;95.41
31331;BME280;34067;39.548;-76.088;2022-09-13T04:13:47;100742.88;;;23.79;95.82
31331;BME280;34067;39.548;-76.088;2022-09-13T04:16:14;100743.63;;;23.68;96.08
31331;BME280;34067;39.548;-76.088;2022-09-13T04:18:42;100740.60;;;23.85;95.65
31331;BME280;34067;39.548;-76.088;2022-09-13T04:21:10;100742.57;;;24.19;93.83
31331;BME280;34067;39.548;-76.088;2022-09-13T04:23:38;100737.19;;;24.34;93.28
31331;BME280;34067;39.548;-76.088;2022-09-13T04:26:06;100728.95;;;24.64;92.10
31331;BME280;34067;39.548;-76.088;2022-09-13T04:28:34;100731.57;;;23.95;94.38
31331;BME280;34067;39.548;-76.088;2022-09-13T04:31:01;100735.44;;;24.45;93.06
31331;BME280;34067;39.548;-76.088;2022-09-13T04:33:29;100734.47;;;24.83;91.56
31331;BME280;34067;39.548;-76.088;2022-09-13T04:35:59;100731.14;;;24.96;90.92
31331;BME280;34067;39.548;-76.088;2022-09-13T04:38:27;100731.47;;;24.81;91.47
31331;BME280;34067;39.548;-76.088;2022-09-13T04:40:56;100726.20;;;24.70;92.11
31331;BME280;34067;39.548;-76.088;2022-09-13T04:43:25;100725.63;;;24.54;92.69
31331;BME280;34067;39.548;-76.088;2022-09-13T04:45:52;100723.07;;;24.36;92.12
31331;BME280;34067;39.548;-76.088;2022-09-13T04:48:20;100718.74;;;24.72;92.35
31331;BME280;34067;39.548;-76.088;2022-09-13T04:50:48;100714.84;;;24.35;93.87
31331;BME280;34067;39.548;-76.088;2022-09-13T04:53:16;100716.03;;;24.19;93.96
31331;BME280;34067;39.548;-76.088;2022-09-13T04:55:44;100712.35;;;24.26;94.23
31331;BME280;34067;39.548;-76.088;2022-09-13T04:58:12;100708.35;;;24.57;93.88
31331;BME280;34067;39.548;-76.088;2022-09-13T05:03:10;100714.77;;;24.59;92.99
31331;BME280;34067;39.548;-76.088;2022-09-13T05:05:37;100710.99;;;25.04;92.94
31331;BME280;34067;39.548;-76.088;2022-09-13T05:08:05;100715.92;;;24.44;95.13
31331;BME280;34067;39.548;-76.088;2022-09-13T05:10:33;100714.84;;;24.43;96.13
31331;BME280;34067;39.548;-76.088;2022-09-13T05:13:00;100719.76;;;24.87;94.65
31331;BME280;34067;39.548;-76.088;2022-09-13T05:15:29;100720.21;;;24.04;95.80
31331;BME280;34067;39.548;-76.088;2022-09-13T05:17:56;100718.27;;;25.02;94.62
31331;BME280;34067;39.548;-76.088;2022-09-13T05:20:24;100716.62;;;24.87;93.38
31331;BME280;34067;39.548;-76.088;2022-09-13T05:22:55;100718.81;;;24.66;93.56
31331;BME280;34067;39.548;-76.088;2022-09-13T05:25:22;100717.66;;;25.05;92.74
31331;BME280;34067;39.548;-76.088;2022-09-13T05:27:51;100721.18;;;25.51;92.42
31331;BME280;34067;39.548;-76.088;2022-09-13T05:30:19;100719.39;;;25.43;91.48
31331;BME280;34067;39.548;-76.088;2022-09-13T05:32:47;100718.67;;;24.88;93.90
31331;BME280;34067;39.548;-76.088;2022-09-13T05:35:15;100715.96;;;24.98;91.63
31331;BME280;34067;39.548;-76.088;2022-09-13T05:37:42;100711.73;;;25.58;91.21
31331;BME280;34067;39.548;-76.088;2022-09-13T05:40:10;100712.94;;;25.11;90.78
31331;BME280;34067;39.548;-76.088;2022-09-13T05:42:38;100714.82;;;25.57;91.32
31331;BME280;34067;39.548;-76.088;2022-09-13T05:45:07;100712.58;;;25.24;90.55
31331;BME280;34067;39.548;-76.088;2022-09-13T05:47:35;100711.80;;;25.34;90.20
31331;BME280;34067;39.548;-76.088;2022-09-13T05:50:04;100708.62;;;25.14;90.91
31331;BME280;34067;39.548;-76.088;2022-09-13T05:52:32;100696.96;;;25.31;90.36
31331;BME280;34067;39.548;-76.088;2022-09-13T05:54:59;100700.31;;;25.40;89.73
31331;BME280;34067;39.548;-76.088;2022-09-13T05:57:27;100701.84;;;25.43;89.61
31331;BME280;34067;39.548;-76.088;2022-09-13T05:59:55;100706.25;;;25.49;89.68
31331;BME280;34067;39.548;-76.088;2022-09-13T06:02:23;100697.47;;;25.96;89.40
31331;BME280;34067;39.548;-76.088;2022-09-13T06:04:50;100693.73;;;24.81;88.78
31331;BME280;34067;39.548;-76.088;2022-09-13T06:07:18;100699.03;;;25.38;87.95
31331;BME280;34067;39.548;-76.088;2022-09-13T06:09:46;100693.62;;;25.52;89.22
31331;BME280;34067;39.548;-76.088;2022-09-13T06:12:14;100683.33;;;25.35;89.67
31331;BME280;34067;39.548;-76.088;2022-09-13T06:14:42;100679.75;;;25.39;89.73
31331;BME280;34067;39.548;-76.088;2022-09-13T06:17:09;100684.23;;;25.07;89.56
31331;BME280;34067;39.548;-76.088;2022-09-13T06:19:37;100677.43;;;25.46;89.93
31331;BME280;34067;39.548;-76.088;2022-09-13T06:22:05;100668.38;;;25.49;89.68
31331;BME280;34067;39.548;-76.088;2022-09-13T06:24:34;100664.74;;;25.63;89.01
31331;BME280;34067;39.548;-76.088;2022-09-13T06:27:01;100663.09;;;25.18;90.70
31331;BME280;34067;39.548;-76.088;2022-09-13T06:29:30;100662.69;;;25.45;89.99
31331;BME280;34067;39.548;-76.088;2022-09-13T06:31:57;100664.05;;;25.23;91.06
31331;BME280;34067;39.548;-76.088;2022-09-13T06:34:25;100666.93;;;24.80;91.34
31331;BME280;34067;39.548;-76.088;2022-09-13T06:36:53;100668.00;;;25.12;91.86
31331;BME280;34067;39.548;-76.088;2022-09-13T06:39:21;100670.40;;;24.72;94.04
31331;BME280;34067;39.548;-76.088;2022-09-13T06:41:49;100672.17;;;24.57;95.36
31331;BME280;34067;39.548;-76.088;2022-09-13T06:44:18;100667.89;;;23.85;97.22
31331;BME280;34067;39.548;-76.088;2022-09-13T06:46:46;100659.20;;;22.85;100.00
31331;BME280;34067;39.548;-76.088;2022-09-13T06:49:14;100650.75;;;23.34;100.00
31331;BME280;34067;39.548;-76.088;2022-09-13T06:51:42;100641.27;;;22.96;100.00
31331;BME280;34067;39.548;-76.088;2022-09-13T06:54:10;100642.08;;;23.60;100.00
31331;BME280;34067;39.548;-76.088;2022-09-13T06:56:38;100638.44;;;24.35;100.00
31331;BME280;34067;39.548;-76.088;2022-09-13T06:59:08;100631.73;;;24.67;97.18
31331;BME280;34067;39.548;-76.088;2022-09-13T07:01:38;100615.84;;;24.49;96.06
31331;BME280;34067;39.548;-76.088;2022-09-13T07:04:08;100609.31;;;23.62;98.88
31331;BME280;34067;39.548;-76.088;2022-09-13T07:06:38;100602.47;;;23.56;96.78
31331;BME280;34067;39.548;-76.088;2022-09-13T07:09:10;100602.34;;;24.42;94.71
31331;BME280;34067;39.548;-76.088;2022-09-13T07:11:40;100610.34;;;23.20;100.00
31331;BME280;34067;39.548;-76.088;2022-09-13T07:14:10;100608.94;;;22.78;100.00
31331;BME280;34067;39.548;-76.088;2022-09-13T07:16:38;100600.22;;;21.73;100.00
31331;BME280;34067;39.548;-76.088;2022-09-13T07:19:11;100601.56;;;21.95;100.00
31331;BME280;34067;39.548;-76.088;2022-09-13T07:21:40;100600.56;;;22.02;100.00
31331;BME280;34067;39.548;-76.088;2022-09-13T07:24:08;100603.05;;;23.05;100.00
31331;BME280;34067;39.548;-76.088;2022-09-13T07:26:37;100615.25;;;22.40;100.00
31331;BME280;34067;39.548;-76.088;2022-09-13T07:29:06;100612.53;;;22.79;100.00
31331;BME280;34067;39.548;-76.088;2022-09-13T07:31:37;100608.64;;;23.12;99.13
31331;BME280;34067;39.548;-76.088;2022-09-13T07:34:07;100614.83;;;22.22;98.83
31331;BME280;34067;39.548;-76.088;2022-09-13T07:36:36;100615.39;;;23.90;95.92
31331;BME280;34067;39.548;-76.088;2022-09-13T07:39:04;100612.52;;;24.15;93.11
31331;BME280;34067;39.548;-76.088;2022-09-13T07:41:33;100614.49;;;24.77;90.93
31331;BME280;34067;39.548;-76.088;2022-09-13T07:44:01;100613.41;;;22.94;93.83
31331;BME280;34067;39.548;-76.088;2022-09-13T07:46:30;100602.64;;;24.64;91.53
31331;BME280;34067;39.548;-76.088;2022-09-13T07:48:59;100608.99;;;24.22;88.07
31331;BME280;34067;39.548;-76.088;2022-09-13T07:51:29;100615.61;;;24.33;88.05
31331;BME280;34067;39.548;-76.088;2022-09-13T07:54:00;100621.52;;;24.39;87.48
31331;BME280;34067;39.548;-76.088;2022-09-13T07:56:29;100624.81;;;24.37;87.20
31331;BME280;34067;39.548;-76.088;2022-09-13T07:58:59;100616.73;;;24.49;86.32
31331;BME280;34067;39.548;-76.088;2022-09-13T08:01:33;100612.18;;;24.48;86.29
31331;BME280;34067;39.548;-76.088;2022-09-13T08:04:03;100607.17;;;24.48;86.60
31331;BME280;34067;39.548;-76.088;2022-09-13T08:06:34;100594.24;;;24.19;85.51
31331;BME280;34067;39.548;-76.088;2022-09-13T08:09:04;100589.42;;;24.76;84.54
31331;BME280;34067;39.548;-76.088;2022-09-13T08:11:35;100583.79;;;24.68;85.94
31331;BME280;34067;39.548;-76.088;2022-09-13T08:14:04;100588.17;;;24.68;85.98
31331;BME280;34067;39.548;-76.088;2022-09-13T08:16:33;100603.65;;;24.49;86.76
31331;BME280;34067;39.548;-76.088;2022-09-13T08:19:03;100598.11;;;23.55;90.55
31331;BME280;34067;39.548;-76.088;2022-09-13T08:21:34;100603.70;;;24.23;88.10
31331;BME280;34067;39.548;-76.088;2022-09-13T08:24:03;100618.51;;;24.03;89.30
31331;BME280;34067;39.548;-76.088;2022-09-13T08:26:32;100618.07;;;23.74;90.57
31331;BME280;34067;39.548;-76.088;2022-09-13T08:29:03;100617.27;;;22.20;94.72
31331;BME280;34067;39.548;-76.088;2022-09-13T08:31:31;100627.99;;;23.82;93.29
31331;BME280;34067;39.548;-76.088;2022-09-13T08:33:59;100634.13;;;23.68;90.51
31331;BME280;34067;39.548;-76.088;2022-09-13T08:36:28;100640.03;;;23.74;90.57
31331;BME280;34067;39.548;-76.088;2022-09-13T08:38:57;100639.76;;;23.64;90.80
31331;BME280;34067;39.548;-76.088;2022-09-13T08:42:24;100641.80;;;23.42;91.16
31331;BME280;34067;39.548;-76.088;2022-09-13T08:44:54;100647.95;;;24.30;86.66
31331;BME280;34067;39.548;-76.088;2022-09-13T08:47:34;100651.07;;;24.04;86.08
31331;BME280;34067;39.548;-76.088;2022-09-13T08:50:12;100648.99;;;24.53;85.44
31331;BME280;34067;39.548;-76.088;2022-09-13T08:52:53;100645.70;;;24.30;86.31
31331;BME280;34067;39.548;-76.088;2022-09-13T08:55:31;100646.31;;;24.38;86.37
31331;BME280;34067;39.548;-76.088;2022-09-13T08:58:08;100651.36;;;23.97;83.91
31331;BME280;34067;39.548;-76.088;2022-09-13T09:00:45;100650.89;;;23.82;85.31
31331;BME280;34067;39.548;-76.088;2022-09-13T09:03:22;100649.32;;;23.83;85.57
31331;BME280;34067;39.548;-76.088;2022-09-13T09:05:53;100652.03;;;23.59;85.64
31331;BME280;34067;39.548;-76.088;2022-09-13T09:08:29;100658.34;;;23.23;86.16
31331;BME280;34067;39.548;-76.088;2022-09-13T09:11:02;100671.63;;;22.43;91.74
31331;BME280;34067;39.548;-76.088;2022-09-13T09:13:36;100667.13;;;21.80;95.24
31331;BME280;34067;39.548;-76.088;2022-09-13T09:16:25;100674.84;;;21.80;96.22
31331;BME280;34067;39.548;-76.088;2022-09-13T09:19:14;100680.75;;;21.51;98.58
31331;BME280;34067;39.548;-76.088;2022-09-13T09:21:44;100685.65;;;20.49;100.00
31331;BME280;34067;39.548;-76.088;2022-09-13T09:24:20;100681.87;;;22.32;99.11
31331;BME280;34067;39.548;-76.088;2022-09-13T09:26:49;100675.75;;;21.33;100.00
31331;BME280;34067;39.548;-76.088;2022-09-13T09:29:20;100679.17;;;21.68;98.15
31331;BME280;34067;39.548;-76.088;2022-09-13T09:31:59;100681.62;;;21.41;99.03
31331;BME280;34067;39.548;-76.088;2022-09-13T09:34:42;100680.90;;;20.81;98.78
31331;BME280;34067;39.548;-76.088;2022-09-13T09:37:18;100682.01;;;20.37;100.00
31331;BME280;34067;39.548;-76.088;2022-09-13T09:39:47;100687.35;;;19.73;100.00
31331;BME280;34067;39.548;-76.088;2022-09-13T09:42:18;100686.41;;;20.33;100.00
31331;BME280;34067;39.548;-76.088;2022-09-13T09:44:50;100698.33;;;20.96;100.00
31331;BME280;34067;39.548;-76.088;2022-09-13T09:47:22;100690.68;;;20.86;99.63
31331;BME280;34067;39.548;-76.088;2022-09-13T09:49:55;100692.61;;;20.42;100.00
31331;BME280;34067;39.548;-76.088;2022-09-13T09:52:34;100696.03;;;21.33;100.00
31331;BME280;34067;39.548;-76.088;2022-09-13T09:55:14;100695.81;;;19.71;100.00
31331;BME280;34067;39.548;-76.088;2022-09-13T09:57:51;100693.08;;;20.64;100.00
31331;BME280;34067;39.548;-76.088;2022-09-13T10:00:22;100698.47;;;21.52;99.81
31331;BME280;34067;39.548;-76.088;2022-09-13T10:02:54;100696.40;;;20.01;100.00
31331;BME280;34067;39.548;-76.088;2022-09-13T10:05:23;100694.43;;;21.46;99.85
31331;BME280;34067;39.548;-76.088;2022-09-13T10:07:56;100693.64;;;20.67;100.00
31331;BME280;34067;39.548;-76.088;2022-09-13T10:10:32;100687.89;;;19.91;100.00
31331;BME280;34067;39.548;-76.088;2022-09-13T10:13:04;100681.76;;;19.58;100.00
31331;BME280;34067;39.548;-76.088;2022-09-13T10:15:34;100680.58;;;20.50;100.00
31331;BME280;34067;39.548;-76.088;2022-09-13T10:18:05;100672.50;;;19.67;100.00
31331;BME280;34067;39.548;-76.088;2022-09-13T10:20:33;100680.52;;;19.92;100.00
31331;BME280;34067;39.548;-76.088;2022-09-13T10:23:19;100688.04;;;19.26;100.00
31331;BME280;34067;39.548;-76.088;2022-09-13T10:26:06;100694.70;;;18.47;100.00
31331;BME280;34067;39.548;-76.088;2022-09-13T10:28:42;100687.58;;;19.48;100.00
31331;BME280;34067;39.548;-76.088;2022-09-13T10:31:13;100686.23;;;19.88;100.00
31331;BME280;34067;39.548;-76.088;2022-09-13T10:33:45;100681.99;;;19.57;100.00
31331;BME280;34067;39.548;-76.088;2022-09-13T10:36:22;100686.99;;;19.78;100.00
31331;BME280;34067;39.548;-76.088;2022-09-13T10:38:57;100687.02;;;18.78;100.00
31331;BME280;34067;39.548;-76.088;2022-09-13T10:41:29;100697.06;;;19.97;100.00
31331;BME280;34067;39.548;-76.088;2022-09-13T10:43:58;100702.51;;;19.73;100.00
31331;BME280;34067;39.548;-76.088;2022-09-13T10:46:28;100698.25;;;19.14;100.00
31331;BME280;34067;39.548;-76.088;2022-09-13T10:48:57;100700.41;;;20.05;100.00
31331;BME280;34067;39.548;-76.088;2022-09-13T10:51:34;100706.48;;;20.20;100.00
31331;BME280;34067;39.548;-76.088;2022-09-13T10:54:18;100711.56;;;20.76;100.00
31331;BME280;34067;39.548;-76.088;2022-09-13T10:56:47;100729.55;;;20.26;100.00
31331;BME280;34067;39.548;-76.088;2022-09-13T10:59:19;100730.82;;;19.92;100.00
31331;BME280;34067;39.548;-76.088;2022-09-13T11:02:00;100736.28;;;20.43;100.00
31331;BME280;34067;39.548;-76.088;2022-09-13T11:05:34;100746.44;;;19.90;100.00
31331;BME280;34067;39.548;-76.088;2022-09-13T11:08:20;100734.80;;;19.05;100.00
31331;BME280;34067;39.548;-76.088;2022-09-13T11:11:03;100751.02;;;19.46;100.00
31331;BME280;34067;39.548;-76.088;2022-09-13T11:13:42;100747.93;;;19.00;100.00
31331;BME280;34067;39.548;-76.088;2022-09-13T11:16:27;100748.08;;;19.50;100.00
31331;BME280;34067;39.548;-76.088;2022-09-13T11:19:12;100756.15;;;19.03;100.00
31331;BME280;34067;39.548;-76.088;2022-09-13T11:21:57;100746.43;;;19.06;100.00
31331;BME280;34067;39.548;-76.088;2022-09-13T11:24:42;100750.69;;;19.24;100.00
31331;BME280;34067;39.548;-76.088;2022-09-13T11:27:18;100762.26;;;18.29;100.00
31331;BME280;34067;39.548;-76.088;2022-09-13T11:30:04;100756.96;;;18.76;100.00
31331;BME280;34067;39.548;-76.088;2022-09-13T11:32:48;100755.38;;;18.53;100.00
31331;BME280;34067;39.548;-76.088;2022-09-13T11:35:35;100764.69;;;18.00;100.00
31331;BME280;34067;39.548;-76.088;2022-09-13T11:38:21;100755.87;;;18.60;100.00
31331;BME280;34067;39.548;-76.088;2022-09-13T11:40:59;100761.80;;;18.51;100.00
31331;BME280;34067;39.548;-76.088;2022-09-13T11:43:45;100756.45;;;18.91;100.00
31331;BME280;34067;39.548;-76.088;2022-09-13T11:46:26;100761.47;;;18.79;100.00
31331;BME280;34067;39.548;-76.088;2022-09-13T11:49:19;100762.16;;;19.42;100.00
31331;BME280;34067;39.548;-76.088;2022-09-13T11:52:04;100763.75;;;19.07;100.00
31331;BME280;34067;39.548;-76.088;2022-09-13T11:54:48;100772.61;;;19.14;100.00
31331;BME280;34067;39.548;-76.088;2022-09-13T11:57:24;100778.70;;;19.25;100.00
31331;BME280;34067;39.548;-76.088;2022-09-13T11:59:56;100779.22;;;20.23;98.38
31331;BME280;34067;39.548;-76.088;2022-09-13T12:02:28;100784.21;;;20.02;97.89
31331;BME280;34067;39.548;-76.088;2022-09-13T12:05:02;100788.73;;;19.40;98.74
31331;BME280;34067;39.548;-76.088;2022-09-13T12:07:35;100787.80;;;18.92;100.00
31331;BME280;34067;39.548;-76.088;2022-09-13T12:10:15;100778.85;;;19.87;92.65
31331;BME280;34067;39.548;-76.088;2022-09-13T12:12:46;100790.13;;;19.25;96.11
31331;BME280;34067;39.548;-76.088;2022-09-13T12:15:19;100774.92;;;19.04;97.40
31331;BME280;34067;39.548;-76.088;2022-09-13T12:17:52;100772.59;;;19.30;97.41
31331;BME280;34067;39.548;-76.088;2022-09-13T12:20:29;100776.04;;;19.66;94.04
31331;BME280;34067;39.548;-76.088;2022-09-13T12:23:02;100784.11;;;19.89;96.09
31331;BME280;34067;39.548;-76.088;2022-09-13T12:25:37;100783.94;;;19.27;97.31
31331;BME280;34067;39.548;-76.088;2022-09-13T12:28:15;100783.82;;;20.74;91.26
31331;BME280;34067;39.548;-76.088;2022-09-13T12:30:50;100793.50;;;19.35;93.27
31331;BME280;34067;39.548;-76.088;2022-09-13T12:33:19;100788.97;;;18.70;100.00
31331;BME280;34067;39.548;-76.088;2022-09-13T12:35:58;100791.00;;;19.00;96.38
31331;BME280;34067;39.548;-76.088;2022-09-13T12:38:48;100783.83;;;20.19;91.46
31331;BME280;34067;39.548;-76.088;2022-09-13T12:41:39;100785.41;;;19.95;90.59
31331;BME280;34067;39.548;-76.088;2022-09-13T12:44:37;100788.41;;;20.77;87.50
31331;BME280;34067;39.548;-76.088;2022-09-13T12:47:28;100790.96;;;19.13;91.32
31331;BME280;34067;39.548;-76.088;2022-09-13T12:50:15;100796.86;;;19.71;85.53
31331;BME280;34067;39.548;-76.088;2022-09-13T12:52:55;100804.83;;;20.81;81.35
31331;BME280;34067;39.548;-76.088;2022-09-13T12:57:55;100792.79;;;20.47;89.53
31331;BME280;34067;39.548;-76.088;2022-09-13T13:00:28;100791.34;;;21.18;84.56
31331;BME280;34067;39.548;-76.088;2022-09-13T13:03:03;100805.58;;;20.55;86.79
31331;BME280;34067;39.548;-76.088;2022-09-13T13:05:35;100804.87;;;19.59;90.98